createdAt,value
2023-01-11T00:00:47.622Z,2.90
2023-01-11T00:03:15.056Z,6.95
2023-01-11T00:05:43.710Z,7.32
2023-01-11T00:08:10.533Z,5.43
2023-01-11T00:10:37.571Z,6.10
2023-01-11T00:13:04.566Z,6.40
2023-01-11T00:15:31.350Z,5.80
2023-01-11T00:17:58.090Z,5.82
2023-01-11T00:20:24.983Z,2.92
2023-01-11T00:22:51.857Z,6.70
2023-01-11T00:25:18.567Z,9.48
2023-01-11T00:27:47.181Z,3.88
2023-01-11T00:30:14.082Z,6.05
2023-01-11T00:32:40.799Z,3.90
2023-01-11T00:35:08.444Z,4.32
2023-01-11T00:37:35.487Z,6.15
2023-01-11T00:40:02.120Z,6.68
2023-01-11T00:42:47.341Z,9.43
2023-01-11T00:45:32.665Z,5.43
2023-01-11T00:48:04.794Z,6.78
2023-01-11T00:50:34.401Z,7.60
2023-01-11T00:53:01.496Z,9.27
2023-01-11T00:55:28.315Z,7.60
2023-01-11T00:57:55.085Z,10.23
2023-01-11T01:00:22.275Z,11.93
2023-01-11T01:02:49.979Z,11.00
2023-01-11T01:05:17.327Z,10.55
2023-01-11T01:07:44.390Z,11.73
2023-01-11T01:10:13.413Z,14.82
2023-01-11T01:12:58.697Z,10.93
2023-01-11T01:15:26.303Z,16.30
2023-01-11T01:17:55.003Z,18.00
2023-01-11T01:20:23.213Z,13.98
2023-01-11T01:22:50.070Z,14.32
2023-01-11T01:25:16.763Z,13.77
2023-01-11T01:27:43.511Z,10.70
2023-01-11T01:30:10.859Z,10.98
2023-01-11T01:32:37.491Z,12.55
2023-01-11T01:35:04.534Z,9.13
2023-01-11T01:37:31.177Z,11.85
2023-01-11T01:39:57.804Z,8.68
2023-01-11T01:42:24.526Z,6.03
2023-01-11T01:45:06.997Z,12.00
2023-01-11T01:47:47.601Z,13.27
2023-01-11T01:50:37.135Z,7.28
2023-01-11T01:53:19.017Z,8.32
2023-01-11T01:55:51.519Z,9.13
2023-01-11T02:00:46.329Z,8.13
2023-01-11T02:03:19.196Z,8.90
2023-01-11T02:05:46.233Z,6.95
2023-01-11T02:08:19.588Z,5.45
2023-01-11T02:10:46.716Z,8.48
2023-01-11T02:13:14.512Z,12.30
2023-01-11T02:15:41.309Z,6.60
2023-01-11T02:18:13.140Z,6.28
2023-01-11T02:21:41.438Z,6.93
2023-01-11T02:24:35.640Z,3.58
2023-01-11T02:27:24.469Z,11.45
2023-01-11T02:31:04.821Z,8.68
2023-01-11T02:33:51.153Z,6.97
2023-01-11T02:39:31.141Z,5.75
2023-01-11T02:42:44.923Z,6.78
2023-01-11T02:45:47.203Z,9.30
2023-01-11T02:48:26.558Z,3.00
2023-01-11T02:51:13.249Z,4.57
2023-01-11T02:53:49.280Z,7.82
2023-01-11T02:56:25.582Z,3.92
2023-01-11T02:58:55.142Z,7.07
2023-01-11T03:01:22.875Z,6.95
2023-01-11T03:03:50.544Z,4.97
2023-01-11T03:06:21.808Z,4.25
2023-01-11T03:09:20.512Z,6.15
2023-01-11T03:12:52.287Z,4.85
2023-01-11T03:16:04.100Z,2.75
2023-01-11T03:18:48.571Z,3.28
2023-01-11T03:22:02.436Z,3.15
2023-01-11T03:25:12.165Z,5.88
2023-01-11T03:28:21.100Z,3.75
2023-01-11T03:31:02.331Z,5.07
2023-01-11T03:33:39.631Z,4.05
2023-01-11T03:36:24.609Z,4.75
2023-01-11T03:39:00.888Z,4.20
2023-01-11T03:41:32.490Z,6.18
2023-01-11T03:44:01.579Z,2.03
2023-01-11T03:46:33.597Z,4.68
2023-01-11T03:49:13.271Z,6.45
2023-01-11T03:51:44.700Z,2.85
2023-01-11T03:54:16.202Z,5.50
2023-01-11T03:57:16.326Z,7.25
2023-01-11T03:59:43.251Z,3.72
2023-01-11T04:02:26.638Z,1.80
2023-01-11T04:04:53.770Z,4.15
2023-01-11T04:07:20.732Z,2.63
2023-01-11T04:09:47.362Z,1.67
2023-01-11T04:12:13.968Z,3.38
2023-01-11T04:14:40.590Z,3.83
2023-01-11T04:17:07.208Z,2.13
2023-01-11T04:19:33.927Z,5.35
2023-01-11T04:22:00.569Z,6.07
2023-01-11T04:24:27.229Z,10.10
2023-01-11T04:26:54.277Z,2.42
2023-01-11T04:29:20.814Z,12.15
2023-01-11T04:31:47.481Z,5.60
2023-01-11T04:34:14.323Z,3.17
2023-01-11T04:36:41.243Z,5.97
2023-01-11T04:39:10.646Z,7.13
2023-01-11T04:41:56.600Z,4.88
2023-01-11T04:44:23.445Z,7.80
2023-01-11T04:46:50.486Z,3.10
2023-01-11T04:49:17.143Z,4.53
2023-01-11T04:51:43.787Z,8.10
2023-01-11T04:54:11.392Z,7.75
2023-01-11T04:56:38.124Z,12.18
2023-01-11T04:59:04.750Z,40.05
2023-01-11T05:01:31.399Z,18.52
2023-01-11T05:03:58.208Z,11.10
2023-01-11T05:06:25.791Z,42.55
2023-01-11T05:08:52.475Z,63.22
2023-01-11T05:11:19.177Z,312.80
2023-01-11T05:13:45.964Z,156.70
2023-01-11T05:16:20.714Z,27.10
2023-01-11T05:18:55.530Z,50.15
2023-01-11T05:21:24.631Z,34.22
2023-01-11T05:23:52.004Z,13.80
2023-01-11T05:26:23.132Z,10.65
2023-01-11T05:28:51.223Z,13.73
2023-01-11T05:31:18.635Z,9.00
2023-01-11T05:33:45.888Z,9.77
2023-01-11T05:36:24.185Z,14.80
2023-01-11T05:38:52.560Z,7.13
2023-01-11T05:41:21.850Z,5.68
2023-01-11T05:44:08.937Z,9.70
2023-01-11T05:46:37.099Z,9.70
2023-01-11T05:49:04.910Z,3.90
2023-01-11T05:51:32.767Z,10.65
2023-01-11T05:54:00.679Z,5.30
2023-01-11T05:56:27.875Z,6.57
2023-01-11T05:58:55.002Z,8.95
2023-01-11T06:01:23.332Z,6.63
2023-01-11T06:03:50.613Z,7.57
2023-01-11T06:06:19.014Z,7.60
2023-01-11T06:08:45.826Z,7.57
2023-01-11T06:11:12.462Z,4.18
2023-01-11T06:13:39.099Z,4.30
2023-01-11T06:16:09.527Z,7.50
2023-01-11T06:18:41.475Z,6.13
2023-01-11T06:21:09.167Z,6.40
2023-01-11T06:23:38.646Z,4.00
2023-01-11T06:26:09.009Z,5.53
2023-01-11T06:28:36.752Z,5.90
2023-01-11T06:31:04.751Z,11.80
2023-01-11T06:33:32.260Z,4.15
2023-01-11T06:36:02.328Z,6.75
2023-01-11T06:38:28.961Z,7.60
2023-01-11T06:40:58.192Z,5.20
2023-01-11T06:43:25.511Z,3.55
2023-01-11T06:45:52.787Z,4.88
2023-01-11T06:48:20.885Z,4.85
2023-01-11T06:50:52.169Z,4.75
2023-01-11T06:53:18.911Z,9.85
2023-01-11T06:55:50.155Z,3.25
2023-01-11T06:58:16.968Z,6.40
2023-01-11T07:00:43.826Z,8.38
2023-01-11T07:03:11.544Z,4.47
2023-01-11T07:05:38.308Z,5.75
2023-01-11T07:08:05.199Z,5.00
2023-01-11T07:10:31.962Z,4.15
2023-01-11T07:12:58.576Z,8.25
2023-01-11T07:15:25.261Z,4.82
2023-01-11T07:17:59.786Z,5.57
2023-01-11T07:20:27.143Z,6.22
2023-01-11T07:22:58.534Z,10.35
2023-01-11T07:25:27.611Z,6.50
2023-01-11T07:28:02.005Z,6.40
2023-01-11T07:30:31.376Z,6.88
2023-01-11T07:32:59.247Z,3.83
2023-01-11T07:35:28.904Z,8.30
2023-01-11T07:37:55.692Z,4.20
2023-01-11T07:40:22.400Z,3.65
2023-01-11T07:43:13.688Z,4.57
2023-01-11T07:45:47.079Z,11.68
2023-01-11T07:48:14.791Z,5.15
2023-01-11T07:50:44.487Z,8.43
2023-01-11T07:53:11.635Z,4.70
2023-01-11T07:55:39.707Z,7.20
2023-01-11T07:58:07.310Z,8.18
2023-01-11T08:00:33.950Z,3.88
2023-01-11T08:03:01.152Z,6.50
2023-01-11T08:05:28.435Z,7.15
2023-01-11T08:07:55.080Z,9.95
2023-01-11T08:10:21.703Z,8.15
2023-01-11T08:13:07.589Z,13.10
2023-01-11T08:15:36.694Z,11.38
2023-01-11T08:18:06.620Z,12.02
2023-01-11T08:20:33.459Z,9.57
2023-01-11T08:23:08.160Z,20.83
2023-01-11T08:25:35.367Z,9.20
2023-01-11T08:28:04.450Z,11.00
2023-01-11T08:30:31.127Z,8.60
2023-01-11T08:33:00.212Z,13.77
2023-01-11T08:35:26.929Z,9.02
2023-01-11T08:37:53.583Z,10.18
2023-01-11T08:40:23.570Z,11.48
2023-01-11T08:42:54.798Z,12.60
2023-01-11T08:45:21.560Z,15.40
2023-01-11T08:47:48.862Z,16.58
2023-01-11T08:50:17.276Z,15.27
2023-01-11T08:52:44.430Z,14.65
2023-01-11T08:55:11.046Z,16.52
2023-01-11T08:57:38.123Z,15.18
2023-01-11T09:00:07.426Z,12.38
2023-01-11T09:02:34.348Z,11.75
2023-01-11T09:05:01.000Z,9.65
2023-01-11T09:07:27.647Z,13.18
2023-01-11T09:09:54.288Z,11.35
2023-01-11T09:12:21.118Z,17.38
2023-01-11T09:14:47.798Z,9.63
2023-01-11T09:17:14.441Z,11.32
2023-01-11T09:19:41.088Z,9.23
2023-01-11T09:22:07.679Z,12.05
2023-01-11T09:24:34.325Z,8.48
2023-01-11T09:27:01.222Z,11.88
2023-01-11T09:29:28.023Z,15.10
2023-01-11T09:31:54.741Z,14.80
2023-01-11T09:34:21.656Z,14.45
2023-01-11T09:36:49.045Z,21.98
2023-01-11T09:39:18.793Z,12.23
2023-01-11T09:42:24.329Z,17.08
2023-01-11T09:44:56.798Z,19.65
2023-01-11T09:50:16.571Z,15.45
2023-01-11T09:52:47.529Z,13.40
2023-01-11T09:55:25.154Z,18.33
2023-01-11T09:58:07.592Z,13.90
2023-01-11T10:01:10.555Z,12.93
2023-01-11T10:04:16.042Z,16.00
2023-01-11T10:07:16.708Z,10.80
2023-01-11T10:18:29.798Z,13.63
2023-01-11T10:20:40.206Z,14.27
2023-01-11T10:23:18.017Z,16.30
2023-01-11T10:25:54.940Z,16.55
2023-01-11T10:32:15.365Z,23.88
2023-01-11T10:35:00.935Z,13.88
2023-01-11T10:37:48.219Z,16.33
2023-01-11T10:43:24.283Z,11.95
2023-01-11T10:45:58.079Z,15.43
2023-01-11T10:48:33.946Z,14.65
2023-01-11T10:51:32.381Z,14.57
2023-01-11T10:54:14.415Z,14.38
2023-01-11T10:57:22.813Z,11.40
2023-01-11T11:00:36.132Z,11.27
2023-01-11T11:06:10.487Z,13.93
2023-01-11T11:09:07.188Z,15.25
2023-01-11T11:11:41.451Z,15.70
2023-01-11T11:14:39.711Z,14.50
2023-01-11T11:17:26.275Z,14.00
2023-01-11T11:19:53.302Z,7.93
2023-01-11T11:22:22.561Z,12.80
2023-01-11T11:24:55.034Z,20.30
2023-01-11T11:30:11.289Z,12.05
2023-01-11T11:32:42.744Z,8.32
2023-01-11T11:35:40.622Z,13.00
2023-01-11T11:38:18.548Z,6.15
2023-01-11T11:40:58.484Z,14.13
2023-01-11T11:43:27.261Z,8.40
2023-01-11T11:45:57.040Z,11.30
2023-01-11T11:48:25.519Z,8.98
2023-01-11T11:50:55.271Z,8.40
2023-01-11T11:53:46.157Z,11.55
2023-01-11T11:56:20.893Z,7.22
2023-01-11T11:58:48.131Z,9.95
2023-01-11T12:01:24.774Z,9.00
2023-01-11T12:03:54.678Z,12.98
2023-01-11T12:06:27.768Z,13.40
2023-01-11T12:08:56.451Z,11.18
2023-01-11T12:11:30.594Z,12.23
2023-01-11T12:14:03.644Z,13.13
2023-01-11T12:16:35.501Z,19.25
2023-01-11T12:19:02.196Z,11.73
2023-01-11T12:21:30.320Z,7.30
2023-01-11T12:24:22.332Z,16.90
2023-01-11T12:27:12.253Z,14.23
2023-01-11T12:30:24.573Z,10.82
2023-01-11T12:33:37.974Z,17.80
2023-01-11T12:39:45.690Z,13.10
2023-01-11T12:42:50.468Z,13.27
2023-01-11T12:45:44.933Z,13.00
2023-01-11T12:48:42.494Z,9.88
2023-01-11T12:51:39.519Z,10.02
2023-01-11T12:58:20.496Z,15.20
2023-01-11T13:26:50.928Z,18.92
2023-01-11T13:29:37.193Z,13.45
2023-01-11T13:32:16.807Z,14.05
2023-01-11T13:35:13.647Z,8.93
2023-01-11T13:38:03.934Z,15.85
2023-01-11T13:40:38.553Z,12.30
2023-01-11T13:43:39.910Z,11.40
2023-01-11T13:50:02.635Z,9.98
2023-01-11T13:52:55.225Z,10.90
2023-01-11T13:55:55.051Z,17.90
2023-01-11T13:58:29.111Z,12.65
2023-01-11T14:01:14.638Z,8.95
2023-01-11T14:03:52.547Z,11.65
2023-01-11T14:10:19.953Z,11.07
2023-01-11T14:13:43.955Z,10.68
2023-01-11T14:16:30.034Z,15.07
2023-01-11T14:19:50.995Z,17.88
2023-01-11T14:22:54.605Z,17.90
2023-01-11T14:25:27.071Z,12.98
2023-01-11T14:28:23.922Z,9.18
2023-01-11T14:31:29.233Z,13.20
2023-01-11T14:34:11.112Z,17.02
2023-01-11T14:37:30.148Z,17.70
2023-01-11T14:40:18.674Z,16.30
2023-01-11T15:17:36.253Z,11.75
2023-01-11T15:20:13.964Z,13.82
2023-01-11T15:22:41.226Z,14.73
2023-01-11T15:25:33.788Z,17.80
2023-01-11T15:28:25.158Z,16.92
2023-01-11T15:30:52.194Z,18.50
2023-01-11T15:33:28.382Z,16.10
2023-01-11T15:36:13.073Z,14.43
2023-01-11T15:39:05.593Z,15.70
2023-01-11T15:42:11.176Z,12.88
2023-01-11T15:45:11.730Z,27.58
2023-01-11T15:48:16.535Z,23.52
2023-01-11T15:51:03.374Z,15.10
2023-01-11T15:54:08.940Z,15.00
2023-01-11T15:56:57.561Z,23.88
2023-01-11T16:00:06.303Z,14.38
2023-01-11T16:03:21.009Z,22.27
2023-01-11T16:06:33.531Z,16.60
2023-01-11T16:09:41.939Z,23.30
2023-01-11T16:12:48.909Z,12.55
2023-01-11T16:15:38.281Z,14.40
2023-01-11T16:18:13.027Z,19.10
2023-01-11T16:20:42.108Z,28.02
2023-01-11T16:23:18.599Z,17.25
2023-01-11T16:25:46.592Z,15.93
2023-01-11T16:28:19.090Z,15.80
2023-01-11T16:33:20.575Z,24.13
2023-01-11T16:35:47.286Z,14.65
2023-01-11T16:38:19.592Z,16.90
2023-01-11T16:40:50.307Z,12.70
2023-01-11T16:43:26.663Z,19.42
2023-01-11T16:45:54.631Z,17.90
2023-01-11T16:48:26.120Z,20.35
2023-01-11T16:51:19.415Z,19.08
2023-01-11T16:53:57.832Z,20.85
2023-01-11T16:56:25.070Z,22.42
2023-01-11T16:59:21.602Z,27.45
2023-01-11T17:01:56.330Z,15.32
2023-01-11T17:04:38.505Z,21.75
2023-01-11T17:07:14.174Z,20.40
2023-01-11T17:09:43.722Z,20.60
2023-01-11T17:12:17.343Z,21.70
2023-01-11T17:15:16.524Z,18.90
2023-01-11T17:17:43.427Z,21.30
2023-01-11T17:20:20.138Z,16.77
2023-01-11T17:22:49.744Z,15.48
2023-01-11T17:25:27.623Z,20.92
2023-01-11T17:28:19.181Z,15.48
2023-01-11T17:30:48.795Z,14.57
2023-01-11T17:33:28.371Z,11.13
2023-01-11T17:35:55.521Z,16.50
2023-01-11T17:38:26.051Z,15.13
2023-01-11T17:40:56.485Z,16.38
2023-01-11T17:43:47.343Z,24.60
2023-01-11T17:46:18.693Z,177.02
2023-01-11T17:48:57.065Z,115.90
2023-01-11T17:51:26.374Z,37.95
2023-01-11T17:53:53.394Z,49.38
2023-01-11T17:56:37.927Z,24.15
2023-01-11T17:59:23.381Z,15.85
2023-01-11T18:01:57.692Z,12.90
2023-01-11T18:04:26.414Z,18.60
2023-01-11T18:06:55.601Z,17.40
2023-01-11T18:09:24.542Z,24.20
2023-01-11T18:11:53.103Z,25.50
2023-01-11T18:14:23.339Z,26.40
2023-01-11T18:17:02.209Z,31.65
2023-01-11T18:19:42.791Z,18.70
2023-01-11T18:22:31.398Z,16.65
2023-01-11T18:25:00.201Z,21.65
2023-01-11T18:27:34.575Z,23.42
2023-01-11T18:30:06.242Z,24.95
2023-01-11T18:32:41.852Z,20.57
2023-01-11T18:35:26.708Z,17.70
2023-01-11T18:37:53.412Z,15.15
2023-01-11T18:40:21.533Z,23.48
2023-01-11T18:42:52.915Z,19.92
2023-01-11T18:45:20.370Z,14.18
2023-01-11T18:47:47.081Z,14.70
2023-01-11T18:50:13.959Z,18.35
2023-01-11T18:52:40.766Z,15.35
2023-01-11T18:55:10.875Z,15.35
2023-01-11T18:57:37.546Z,14.45
2023-01-11T19:00:04.748Z,14.23
2023-01-11T19:02:42.854Z,13.00
2023-01-11T19:05:15.706Z,12.38
2023-01-11T19:07:42.398Z,19.15
2023-01-11T19:10:10.862Z,11.77
2023-01-11T19:12:37.516Z,17.95
2023-01-11T19:15:04.532Z,15.48
2023-01-11T19:17:31.947Z,12.95
2023-01-11T19:19:58.615Z,16.98
2023-01-11T19:22:26.677Z,17.15
2023-01-11T19:24:54.599Z,14.55
2023-01-11T19:27:21.952Z,14.68
2023-01-11T19:29:48.656Z,20.58
2023-01-11T19:32:17.274Z,23.40
2023-01-11T19:34:43.959Z,52.35
2023-01-11T19:37:10.870Z,40.85
2023-01-11T19:39:37.566Z,27.67
2023-01-11T19:42:04.431Z,24.30
2023-01-11T19:44:33.910Z,15.40
2023-01-11T19:47:11.181Z,17.50
2023-01-11T19:49:39.624Z,13.05
2023-01-11T19:52:13.393Z,7.32
2023-01-11T19:54:44.006Z,8.15
2023-01-11T19:57:18.769Z,4.10
2023-01-11T19:59:45.423Z,7.55
2023-01-11T20:02:13.258Z,4.28
2023-01-11T20:04:40.920Z,6.78
2023-01-11T20:07:08.826Z,7.95
2023-01-11T20:09:38.623Z,16.48
2023-01-11T20:12:07.009Z,17.63
2023-01-11T20:14:34.264Z,18.42
2023-01-11T20:17:01.102Z,3.80
2023-01-11T20:19:27.904Z,15.70
2023-01-11T20:21:55.880Z,7.95
2023-01-11T20:24:28.351Z,12.88
2023-01-11T20:26:56.226Z,12.75
2023-01-11T20:29:22.853Z,21.23
2023-01-11T20:31:49.638Z,29.25
2023-01-11T20:34:17.526Z,92.68
2023-01-11T20:36:44.912Z,66.97
2023-01-11T20:39:11.806Z,120.53
2023-01-11T20:41:47.758Z,93.97
2023-01-11T20:44:20.248Z,76.40
2023-01-11T20:46:48.428Z,84.00
2023-01-11T20:49:16.080Z,56.13
2023-01-11T20:51:43.464Z,76.65
2023-01-11T20:54:10.745Z,65.45
2023-01-11T20:56:38.613Z,63.10
2023-01-11T20:59:07.416Z,28.83
2023-01-11T21:01:34.555Z,37.17
2023-01-11T21:04:04.043Z,32.65
2023-01-11T21:06:32.262Z,35.25
2023-01-11T21:09:00.702Z,26.80
2023-01-11T21:11:28.274Z,16.17
2023-01-11T21:13:55.856Z,17.20
2023-01-11T21:16:24.581Z,19.83
2023-01-11T21:18:56.634Z,11.07
2023-01-11T21:21:24.059Z,12.55
2023-01-11T21:23:54.527Z,13.80
2023-01-11T21:26:22.374Z,11.60
2023-01-11T21:29:07.409Z,6.28
2023-01-11T21:31:36.125Z,6.82
2023-01-11T21:34:03.903Z,7.97
2023-01-11T21:36:31.807Z,7.38
2023-01-11T21:38:59.697Z,11.60
2023-01-11T21:41:46.805Z,10.68
2023-01-11T21:44:14.702Z,9.30
2023-01-11T21:46:41.798Z,6.15
2023-01-11T21:49:08.860Z,11.95
2023-01-11T21:51:35.639Z,12.55
2023-01-11T21:54:07.862Z,13.55
2023-01-11T21:56:34.981Z,10.30
2023-01-11T21:59:02.213Z,8.07
2023-01-11T22:01:29.212Z,9.32
2023-01-11T22:03:56.205Z,5.53
2023-01-11T22:06:22.931Z,4.90
2023-01-11T22:08:49.700Z,12.95
2023-01-11T22:11:17.528Z,11.45
2023-01-11T22:13:44.657Z,13.50
2023-01-11T22:16:14.583Z,11.25
2023-01-11T22:18:42.508Z,4.22
2023-01-11T22:21:17.969Z,6.25
2023-01-11T22:23:46.895Z,4.47
2023-01-11T22:26:17.046Z,4.43
2023-01-11T22:29:03.978Z,6.25
2023-01-11T22:31:31.797Z,7.75
2023-01-11T22:33:58.824Z,9.10
2023-01-11T22:36:26.528Z,4.43
2023-01-11T22:38:54.140Z,2.60
2023-01-11T22:41:21.031Z,4.47
2023-01-11T22:43:48.081Z,4.30
2023-01-11T22:46:16.819Z,3.85
2023-01-11T22:48:43.572Z,5.22
2023-01-11T22:51:11.458Z,3.85
2023-01-11T22:53:42.404Z,4.95
2023-01-11T22:56:10.620Z,2.88
2023-01-11T22:58:37.746Z,1.63
2023-01-11T23:01:37.523Z,6.25
2023-01-11T23:04:05.675Z,2.08
2023-01-11T23:06:34.935Z,1.52
2023-01-11T23:09:01.827Z,1.65
2023-01-11T23:11:49.174Z,1.27
2023-01-11T23:14:18.997Z,1.70
2023-01-11T23:16:47.041Z,3.03
2023-01-11T23:19:16.169Z,1.45
2023-01-11T23:21:44.750Z,4.13
2023-01-11T23:24:13.458Z,3.22
2023-01-11T23:26:40.967Z,0.90
2023-01-11T23:29:07.784Z,1.88
2023-01-11T23:31:35.177Z,1.55
2023-01-11T23:34:03.131Z,4.18
2023-01-11T23:36:35.020Z,0.77
2023-01-11T23:39:02.078Z,0.63
2023-01-11T23:41:47.277Z,0.50
2023-01-11T23:44:16.857Z,3.08
2023-01-11T23:47:03.458Z,0.63
2023-01-11T23:49:31.327Z,0.82
2023-01-11T23:51:58.836Z,2.08
2023-01-11T23:54:30.505Z,1.30
2023-01-11T23:56:58.004Z,3.33
2023-01-11T23:59:24.728Z,1.65
